createdAt,value
2018-02-08T00:00:46.680Z,-1.19
2018-02-08T00:03:23.741Z,-1.20
2018-02-08T00:05:52.026Z,-1.17
2018-02-08T00:08:20.538Z,-1.27
2018-02-08T00:10:48.838Z,-1.36
2018-02-08T00:13:17.648Z,-1.39
2018-02-08T00:15:45.989Z,-1.33
2018-02-08T00:18:18.108Z,-1.30
2018-02-08T00:20:46.448Z,-1.28
2018-02-08T00:23:18.371Z,-1.56
2018-02-08T00:25:46.685Z,-1.67
2018-02-08T00:28:16.826Z,-1.65
2018-02-08T00:30:45.169Z,-1.75
2018-02-08T00:33:16.787Z,-1.81
2018-02-08T00:35:45.092Z,-1.94
2018-02-08T00:38:19.256Z,-1.65
2018-02-08T00:40:48.266Z,-1.62
2018-02-08T00:43:16.649Z,-1.60
2018-02-08T00:45:44.979Z,-1.54
2018-02-08T00:48:16.634Z,-1.51
2018-02-08T00:50:45.740Z,-1.52
2018-02-08T00:53:17.429Z,-1.58
2018-02-08T00:55:47.026Z,-1.67
2018-02-08T00:58:16.930Z,-1.69
2018-02-08T01:00:45.211Z,-1.59
2018-02-08T01:03:17.383Z,-1.55
2018-02-08T01:05:45.683Z,-1.52
2018-02-08T01:08:17.973Z,-1.78
2018-02-08T01:10:47.197Z,-1.67
2018-02-08T01:13:16.958Z,-1.79
2018-02-08T01:15:45.538Z,-1.74
2018-02-08T01:18:16.653Z,-1.75
2018-02-08T01:20:45.293Z,-1.71
2018-02-08T01:23:17.560Z,-1.74
2018-02-08T01:25:45.882Z,-1.68
2018-02-08T01:28:17.722Z,-1.74
2018-02-08T01:30:46.017Z,-1.71
2018-02-08T01:33:17.282Z,-1.79
2018-02-08T01:35:45.796Z,-1.87
2018-02-08T01:38:17.245Z,-1.83
2018-02-08T01:40:46.018Z,-1.79
2018-02-08T01:43:17.466Z,-1.81
2018-02-08T01:45:45.748Z,-1.81
2018-02-08T01:48:17.688Z,-1.81
2018-02-08T01:50:46.001Z,-1.77
2018-02-08T01:53:18.060Z,-1.81
2018-02-08T01:55:46.366Z,-1.87
2018-02-08T01:58:18.476Z,-1.91
2018-02-08T02:00:46.813Z,-2.07
2018-02-08T02:03:16.745Z,-1.95
2018-02-08T02:05:45.057Z,-1.99
2018-02-08T02:08:20.239Z,-2.04
2018-02-08T02:10:48.540Z,-2.00
2018-02-08T02:13:16.870Z,-2.03
2018-02-08T02:15:45.449Z,-2.11
2018-02-08T02:18:16.761Z,-2.13
2018-02-08T02:20:45.050Z,-2.00
2018-02-08T02:23:16.419Z,-2.20
2018-02-08T02:25:44.708Z,-2.09
2018-02-08T02:28:16.025Z,-2.20
2018-02-08T02:30:44.891Z,-2.21
2018-02-08T02:33:18.156Z,-2.11
2018-02-08T02:35:47.399Z,-2.21
2018-02-08T02:38:17.562Z,-2.31
2018-02-08T02:40:46.065Z,-2.22
2018-02-08T02:43:17.922Z,-2.32
2018-02-08T02:45:46.223Z,-2.21
2018-02-08T02:48:18.309Z,-2.19
2018-02-08T02:50:46.917Z,-2.29
2018-02-08T02:53:18.503Z,-2.30
2018-02-08T02:55:46.809Z,-2.26
2018-02-08T02:58:16.721Z,-2.32
2018-02-08T03:00:45.045Z,-2.33
2018-02-08T03:03:20.444Z,-2.35
2018-02-08T03:05:48.757Z,-2.32
2018-02-08T03:08:17.040Z,-2.49
2018-02-08T03:10:45.348Z,-2.56
2018-02-08T03:13:16.832Z,-2.53
2018-02-08T03:15:45.137Z,-2.65
2018-02-08T03:18:16.480Z,-2.63
2018-02-08T03:20:44.809Z,-2.57
2018-02-08T03:23:20.285Z,-2.69
2018-02-08T03:25:48.548Z,-2.74
2018-02-08T03:28:17.624Z,-2.78
2018-02-08T03:30:51.075Z,-2.75
2018-02-08T03:33:19.399Z,-2.87
2018-02-08T03:35:47.683Z,-2.82
2018-02-08T03:38:16.932Z,-2.79
2018-02-08T03:40:45.264Z,-2.74
2018-02-08T03:43:17.198Z,-2.63
2018-02-08T03:45:45.487Z,-2.71
2018-02-08T03:48:17.432Z,-2.66
2018-02-08T03:50:45.940Z,-2.76
2018-02-08T03:53:17.793Z,-2.81
2018-02-08T03:55:46.069Z,-2.80
2018-02-08T03:58:18.903Z,-2.90
2018-02-08T04:00:47.196Z,-2.89
2018-02-08T04:03:18.634Z,-2.95
2018-02-08T04:05:47.240Z,-2.93
2018-02-08T04:08:16.966Z,-2.87
2018-02-08T04:10:45.300Z,-2.86
2018-02-08T04:13:17.523Z,-2.99
2018-02-08T04:15:45.821Z,-2.92
2018-02-08T04:18:18.009Z,-2.84
2018-02-08T04:20:46.319Z,-2.79
2018-02-08T04:23:18.018Z,-2.92
2018-02-08T04:25:46.453Z,-2.80
2018-02-08T04:28:18.618Z,-2.82
2018-02-08T04:30:46.941Z,-2.76
2018-02-08T04:33:18.544Z,-2.87
2018-02-08T04:35:46.970Z,-2.91
2018-02-08T04:38:18.009Z,-2.97
2018-02-08T04:40:58.280Z,-3.07
2018-02-08T04:43:38.308Z,-3.21
2018-02-08T04:46:18.206Z,-3.21
2018-02-08T04:48:46.490Z,-3.27
2018-02-08T04:51:14.781Z,-3.32
2018-02-08T04:53:43.091Z,-3.35
2018-02-08T04:56:11.797Z,-3.38
2018-02-08T04:58:40.200Z,-3.41
2018-02-08T05:01:08.516Z,-3.28
2018-02-08T05:03:36.826Z,-3.31
2018-02-08T05:06:05.132Z,-3.31
2018-02-08T05:08:33.448Z,-3.36
2018-02-08T05:11:01.739Z,-3.40
2018-02-08T05:13:30.045Z,-3.22
2018-02-08T05:15:58.548Z,-3.18
2018-02-08T05:18:26.839Z,-3.16
2018-02-08T05:20:55.157Z,-3.23
2018-02-08T05:23:23.448Z,-3.34
2018-02-08T05:25:51.759Z,-3.33
2018-02-08T05:28:20.071Z,-3.36
2018-02-08T05:30:48.678Z,-3.36
2018-02-08T05:33:17.561Z,-3.32
2018-02-08T05:35:45.870Z,-3.26
2018-02-08T05:38:16.963Z,-3.25
2018-02-08T05:40:45.372Z,-3.40
2018-02-08T05:43:17.373Z,-3.43
2018-02-08T05:45:45.672Z,-3.54
2018-02-08T05:48:17.636Z,-3.42
2018-02-08T05:50:46.217Z,-3.30
2018-02-08T05:53:18.433Z,-3.45
2018-02-08T05:55:46.930Z,-3.27
2018-02-08T05:58:18.752Z,-3.30
2018-02-08T06:00:47.042Z,-3.33
2018-02-08T06:03:16.868Z,-3.44
2018-02-08T06:05:45.185Z,-3.59
2018-02-08T06:08:18.184Z,-3.57
2018-02-08T06:10:46.496Z,-3.49
2018-02-08T06:13:19.320Z,-3.46
2018-02-08T06:15:47.617Z,-3.60
2018-02-08T06:18:17.085Z,-3.74
2018-02-08T06:20:45.493Z,-3.66
2018-02-08T06:23:17.776Z,-3.67
2018-02-08T06:25:46.077Z,-3.67
2018-02-08T06:28:18.265Z,-3.70
2018-02-08T06:30:46.799Z,-3.67
2018-02-08T06:33:16.906Z,-3.60
2018-02-08T06:35:45.446Z,-3.74
2018-02-08T06:38:16.811Z,-3.75
2018-02-08T06:40:45.103Z,-3.75
2018-02-08T06:43:20.224Z,-3.82
2018-02-08T06:45:48.512Z,-3.88
2018-02-08T06:48:16.819Z,-3.74
2018-02-08T06:50:45.124Z,-3.82
2018-02-08T06:53:17.265Z,-3.83
2018-02-08T06:55:46.865Z,-3.91
2018-02-08T06:58:18.295Z,-3.87
2018-02-08T07:00:48.255Z,-3.84
2018-02-08T07:03:18.936Z,-3.82
2018-02-08T07:05:48.871Z,-3.90
2018-02-08T07:08:19.354Z,-3.88
2018-02-08T07:10:49.157Z,-3.98
2018-02-08T07:13:18.628Z,-4.02
2018-02-08T07:15:48.455Z,-4.07
2018-02-08T07:18:18.504Z,-3.91
2018-02-08T07:20:48.728Z,-3.86
2018-02-08T07:23:18.910Z,-3.69
2018-02-08T07:25:48.624Z,-3.68
2018-02-08T07:28:18.697Z,-3.56
2018-02-08T07:30:49.110Z,-3.12
2018-02-08T07:33:19.059Z,-3.29
2018-02-08T07:35:48.886Z,-2.71
2018-02-08T07:38:19.103Z,-2.61
2018-02-08T07:40:48.713Z,-3.03
2018-02-08T07:43:19.130Z,-2.97
2018-02-08T07:45:49.033Z,-2.97
2018-02-08T07:48:19.103Z,-2.71
2018-02-08T07:50:49.360Z,-2.74
2018-02-08T07:53:17.684Z,-2.73
2018-02-08T07:55:45.986Z,-2.37
2018-02-08T07:58:17.572Z,-2.27
2018-02-08T08:00:46.021Z,-2.17
2018-02-08T08:03:17.602Z,-2.20
2018-02-08T08:05:46.095Z,-2.41
2018-02-08T08:08:17.943Z,-2.23
2018-02-08T08:10:46.268Z,-2.08
2018-02-08T08:13:18.275Z,-2.31
2018-02-08T08:15:46.585Z,-2.26
2018-02-08T08:18:16.701Z,-1.96
2018-02-08T08:20:45.046Z,-1.89
2018-02-08T08:23:16.849Z,-1.56
2018-02-08T08:25:45.140Z,-1.30
2018-02-08T08:28:20.151Z,-1.10
2018-02-08T08:30:48.482Z,-1.37
2018-02-08T08:33:20.420Z,-1.37
2018-02-08T08:35:48.721Z,-1.08
2018-02-08T08:38:17.042Z,-0.53
2018-02-08T08:40:45.336Z,0.01
2018-02-08T08:43:16.824Z,0.42
2018-02-08T08:45:45.141Z,0.34
2018-02-08T08:48:20.284Z,0.64
2018-02-08T08:50:48.728Z,0.44
2018-02-08T08:53:17.096Z,0.28
2018-02-08T08:55:49.785Z,0.63
2018-02-08T08:58:18.972Z,0.82
2018-02-08T09:00:47.484Z,0.81
2018-02-08T09:03:17.310Z,0.88
2018-02-08T09:05:45.594Z,1.39
2018-02-08T09:08:17.709Z,1.20
2018-02-08T09:10:46.011Z,0.91
2018-02-08T09:13:18.108Z,0.91
2018-02-08T09:15:46.393Z,0.54
2018-02-08T09:18:17.660Z,0.79
2018-02-08T09:20:46.147Z,0.61
2018-02-08T09:23:18.316Z,0.81
2018-02-08T09:25:47.043Z,0.82
2018-02-08T09:28:16.863Z,0.67
2018-02-08T09:30:45.163Z,1.22
2018-02-08T09:33:18.268Z,1.48
2018-02-08T09:35:47.223Z,1.56
2018-02-08T09:38:16.968Z,1.53
2018-02-08T09:40:45.276Z,1.91
2018-02-08T09:43:17.292Z,2.31
2018-02-08T09:45:45.595Z,2.48
2018-02-08T09:48:17.629Z,2.22
2018-02-08T09:50:46.184Z,2.36
2018-02-08T09:53:18.093Z,2.07
2018-02-08T09:55:46.398Z,2.57
2018-02-08T09:58:17.622Z,1.78
2018-02-08T10:00:46.672Z,1.36
2018-02-08T10:03:18.324Z,1.48
2018-02-08T10:05:46.840Z,1.69
2018-02-08T10:08:18.974Z,1.44
2018-02-08T10:10:47.511Z,0.91
2018-02-08T10:13:16.925Z,1.39
2018-02-08T10:15:45.219Z,1.66
2018-02-08T10:18:16.774Z,1.98
2018-02-08T10:20:45.384Z,2.23
2018-02-08T10:23:18.291Z,2.61
2018-02-08T10:25:46.606Z,3.14
2018-02-08T10:28:17.870Z,3.33
2018-02-08T10:30:46.269Z,1.96
2018-02-08T10:33:18.482Z,2.25
2018-02-08T10:35:47.609Z,2.47
2018-02-08T10:38:16.963Z,3.41
2018-02-08T10:40:45.295Z,3.45
2018-02-08T10:43:16.959Z,3.29
2018-02-08T10:45:45.240Z,3.21
2018-02-08T10:48:16.708Z,3.54
2018-02-08T10:50:45.128Z,4.18
2018-02-08T10:53:20.264Z,3.76
2018-02-08T10:55:48.564Z,3.75
2018-02-08T10:58:16.840Z,3.98
2018-02-08T11:00:45.144Z,4.14
2018-02-08T11:03:20.157Z,4.68
2018-02-08T11:05:48.734Z,3.98
2018-02-08T11:08:17.012Z,3.88
2018-02-08T11:10:45.313Z,3.88
2018-02-08T11:13:17.452Z,4.56
2018-02-08T11:15:45.742Z,5.22
2018-02-08T11:18:17.578Z,5.31
2018-02-08T11:20:45.926Z,4.95
2018-02-08T11:23:18.071Z,6.04
2018-02-08T11:25:46.375Z,6.65
2018-02-08T11:28:17.709Z,6.69
2018-02-08T11:30:46.009Z,7.02
2018-02-08T11:33:18.145Z,7.04
2018-02-08T11:35:46.699Z,6.88
2018-02-08T11:38:18.684Z,6.66
2018-02-08T11:40:47.446Z,5.82
2018-02-08T11:43:16.965Z,6.97
2018-02-08T11:45:45.276Z,7.57
2018-02-08T11:48:16.959Z,6.70
2018-02-08T11:50:47.239Z,5.43
2018-02-08T11:53:17.227Z,5.24
2018-02-08T11:55:45.505Z,6.18
2018-02-08T11:58:18.670Z,6.34
2018-02-08T12:00:46.953Z,6.23
2018-02-08T12:03:18.806Z,6.56
2018-02-08T12:05:48.729Z,5.37
2018-02-08T12:08:18.882Z,6.12
2018-02-08T12:10:49.312Z,5.88
2018-02-08T12:13:21.073Z,6.77
2018-02-08T12:15:51.772Z,7.03
2018-02-08T12:18:21.678Z,6.10
2018-02-08T12:20:51.437Z,6.86
2018-02-08T12:23:21.216Z,6.62
2018-02-08T12:25:51.442Z,5.61
2018-02-08T12:28:21.430Z,6.32
2018-02-08T12:30:52.427Z,5.67
2018-02-08T12:33:22.219Z,6.40
2018-02-08T12:35:51.582Z,6.67
2018-02-08T12:38:22.157Z,6.10
2018-02-08T12:40:52.375Z,7.00
2018-02-08T12:43:23.300Z,6.88
2018-02-08T12:45:53.103Z,7.06
2018-02-08T12:48:21.466Z,6.75
2018-02-08T12:50:50.028Z,7.30
2018-02-08T12:53:18.345Z,7.92
2018-02-08T12:55:46.720Z,8.07
2018-02-08T12:58:16.917Z,7.58
2018-02-08T13:00:45.227Z,7.43
2018-02-08T13:03:19.028Z,6.19
2018-02-08T13:05:47.341Z,6.94
2018-02-08T13:08:17.882Z,7.38
2018-02-08T13:10:47.273Z,7.19
2018-02-08T13:13:17.380Z,7.54
2018-02-08T13:15:45.671Z,6.93
2018-02-08T13:18:17.786Z,7.13
2018-02-08T13:20:46.073Z,7.75
2018-02-08T13:23:18.007Z,7.43
2018-02-08T13:25:46.351Z,8.17
2018-02-08T13:28:18.491Z,6.44
2018-02-08T13:30:47.711Z,7.95
2018-02-08T13:33:16.854Z,7.74
2018-02-08T13:35:45.153Z,7.27
2018-02-08T13:38:18.356Z,6.51
2018-02-08T13:40:49.466Z,7.91
2018-02-08T13:43:18.050Z,6.77
2018-02-08T13:45:46.336Z,6.67
2018-02-08T13:48:21.797Z,6.97
2018-02-08T13:50:51.419Z,6.59
2018-02-08T13:56:33.948Z,6.73
2018-02-08T13:59:08.114Z,5.86
2018-02-08T14:01:36.929Z,6.41
2018-02-08T14:04:05.254Z,6.06
2018-02-08T14:06:33.561Z,4.68
2018-02-08T14:09:01.868Z,4.74
2018-02-08T14:11:30.387Z,4.85
2018-02-08T14:13:58.665Z,4.73
2018-02-08T14:16:26.968Z,4.43
2018-02-08T14:18:55.268Z,4.41
2018-02-08T14:21:23.640Z,4.45
2018-02-08T14:23:51.910Z,4.34
2018-02-08T14:26:20.238Z,4.17
2018-02-08T14:28:48.625Z,4.03
2018-02-08T14:31:17.476Z,4.04
2018-02-08T14:33:46.093Z,3.89
2018-02-08T14:36:14.399Z,3.85
2018-02-08T14:38:42.713Z,4.03
2018-02-08T14:41:11.009Z,4.09
2018-02-08T14:43:39.329Z,4.05
2018-02-08T14:46:07.624Z,4.04
2018-02-08T14:48:35.932Z,3.40
2018-02-08T14:51:04.313Z,3.69
2018-02-08T14:53:32.596Z,3.91
2018-02-08T14:56:00.880Z,3.81
2018-02-08T14:58:29.304Z,3.81
2018-02-08T15:00:57.584Z,3.63
2018-02-08T15:03:25.953Z,3.72
2018-02-08T15:05:54.278Z,3.84
2018-02-08T15:08:23.384Z,3.89
2018-02-08T15:10:51.709Z,3.82
2018-02-08T15:13:19.988Z,3.66
2018-02-08T15:15:48.293Z,3.70
2018-02-08T15:18:16.577Z,3.64
2018-02-08T15:20:45.005Z,3.77
2018-02-08T15:23:15.911Z,3.81
2018-02-08T15:25:44.439Z,3.88
2018-02-08T15:28:16.494Z,3.60
2018-02-08T15:30:44.793Z,3.57
2018-02-08T15:33:16.423Z,3.34
2018-02-08T15:35:44.720Z,3.57
2018-02-08T15:38:16.874Z,3.44
2018-02-08T15:40:45.207Z,3.46
2018-02-08T15:43:16.404Z,3.37
2018-02-08T15:45:44.904Z,3.38
2018-02-08T15:48:16.869Z,3.33
2018-02-08T15:50:45.236Z,3.12
2018-02-08T15:53:17.385Z,3.13
2018-02-08T15:55:45.680Z,3.03
2018-02-08T15:58:16.916Z,2.98
2018-02-08T16:00:45.204Z,3.01
2018-02-08T16:03:17.381Z,2.92
2018-02-08T16:05:45.788Z,2.87
2018-02-08T16:08:15.809Z,2.79
2018-02-08T16:10:44.110Z,2.74
2018-02-08T16:13:17.497Z,3.03
2018-02-08T16:15:45.999Z,2.82
2018-02-08T16:18:16.011Z,2.57
2018-02-08T16:20:44.350Z,2.46
2018-02-08T16:23:18.450Z,2.69
2018-02-08T16:25:47.089Z,2.51
2018-02-08T16:28:16.138Z,2.52
2018-02-08T16:30:44.436Z,2.43
2018-02-08T16:33:18.503Z,2.37
2018-02-08T16:35:46.793Z,2.13
2018-02-08T16:38:16.347Z,2.15
2018-02-08T16:40:44.647Z,2.21
2018-02-08T16:43:16.508Z,2.12
2018-02-08T16:45:44.876Z,1.79
2018-02-08T16:48:16.506Z,1.75
2018-02-08T16:50:44.784Z,1.72
2018-02-08T16:53:16.648Z,1.68
2018-02-08T16:55:44.942Z,1.51
2018-02-08T16:58:16.810Z,1.38
2018-02-08T17:00:45.078Z,1.01
2018-02-08T17:03:17.236Z,1.09
2018-02-08T17:05:45.517Z,1.22
2018-02-08T17:08:17.666Z,1.29
2018-02-08T17:10:45.960Z,1.30
2018-02-08T17:13:18.886Z,1.24
2018-02-08T17:15:47.213Z,1.02
2018-02-08T17:18:16.441Z,0.81
2018-02-08T17:20:44.757Z,0.75
2018-02-08T17:23:15.985Z,0.83
2018-02-08T17:25:44.301Z,0.93
2018-02-08T17:28:15.611Z,1.05
2018-02-08T17:30:43.929Z,0.87
2018-02-08T17:33:15.262Z,0.82
2018-02-08T17:35:43.560Z,0.73
2018-02-08T17:38:18.264Z,0.76
2018-02-08T17:40:46.569Z,0.80
2018-02-08T17:43:15.984Z,0.89
2018-02-08T17:45:44.300Z,1.11
2018-02-08T17:48:17.230Z,0.96
2018-02-08T17:50:45.982Z,0.59
2018-02-08T17:53:17.733Z,0.33
2018-02-08T17:55:46.045Z,0.31
2018-02-08T17:58:16.583Z,0.37
2018-02-08T18:00:44.900Z,0.58
2018-02-08T18:03:16.893Z,0.53
2018-02-08T18:05:45.414Z,0.40
2018-02-08T18:08:18.351Z,0.31
2018-02-08T18:10:48.859Z,0.36
2018-02-08T18:13:18.653Z,0.22
2018-02-08T18:15:49.387Z,0.24
2018-02-08T18:18:21.803Z,0.16
2018-02-08T18:20:50.471Z,0.29
2018-02-08T18:23:21.267Z,0.22
2018-02-08T18:25:49.726Z,0.16
2018-02-08T18:28:18.031Z,0.12
2018-02-08T18:30:46.329Z,0.12
2018-02-08T18:33:17.577Z,-0.01
2018-02-08T18:35:46.506Z,-0.20
2018-02-08T18:38:16.786Z,-0.11
2018-02-08T18:40:45.123Z,-0.02
2018-02-08T18:43:16.988Z,-0.03
2018-02-08T18:45:46.029Z,0.02
2018-02-08T18:48:17.361Z,-0.02
2018-02-08T18:50:45.683Z,-0.13
2018-02-08T18:53:17.498Z,-0.09
2018-02-08T18:55:45.947Z,-0.05
2018-02-08T18:58:19.068Z,-0.19
2018-02-08T19:00:48.511Z,0.01
2018-02-08T19:03:17.222Z,-0.05
2018-02-08T19:05:45.544Z,-0.13
2018-02-08T19:08:16.789Z,-0.21
2018-02-08T19:10:45.092Z,-0.30
2018-02-08T19:13:17.133Z,-0.55
2018-02-08T19:15:45.743Z,-0.68
2018-02-08T19:18:17.529Z,-0.74
2018-02-08T19:20:45.842Z,-0.70
2018-02-08T19:23:16.001Z,-0.66
2018-02-08T19:25:44.583Z,-0.68
2018-02-08T19:28:16.060Z,-0.58
2018-02-08T19:30:44.380Z,-0.55
2018-02-08T19:33:16.646Z,-0.73
2018-02-08T19:35:44.970Z,-0.88
2018-02-08T19:38:19.097Z,-1.01
2018-02-08T19:40:47.397Z,-1.15
2018-02-08T19:43:16.373Z,-1.08
2018-02-08T19:45:44.902Z,-0.92
2018-02-08T19:48:16.080Z,-0.71
2018-02-08T19:50:44.596Z,-0.68
2018-02-08T19:53:16.652Z,-0.68
2018-02-08T19:55:44.969Z,-0.82
2018-02-08T19:58:16.892Z,-0.71
2018-02-08T20:00:45.334Z,-0.87
2018-02-08T20:03:15.941Z,-1.02
2018-02-08T20:05:44.516Z,-1.09
2018-02-08T20:08:18.513Z,-1.15
2018-02-08T20:10:46.856Z,-1.21
2018-02-08T20:13:16.472Z,-1.21
2018-02-08T20:15:44.770Z,-1.29
2018-02-08T20:18:16.049Z,-1.25
2018-02-08T20:20:44.358Z,-1.37
2018-02-08T20:23:19.409Z,-1.36
2018-02-08T20:25:47.738Z,-1.36
2018-02-08T20:28:16.036Z,-1.39
2018-02-08T20:30:49.945Z,-1.41
2018-02-08T20:33:18.245Z,-1.37
2018-02-08T20:35:46.560Z,-1.36
2018-02-08T20:38:16.637Z,-1.41
2018-02-08T20:40:44.935Z,-1.46
2018-02-08T20:43:22.752Z,-1.49
2018-02-08T20:45:51.061Z,-1.56
2018-02-08T20:48:19.361Z,-1.55
2018-02-08T20:50:47.647Z,-1.49
2018-02-08T20:53:15.995Z,-1.61
2018-02-08T20:55:44.287Z,-1.54
2018-02-08T20:58:19.444Z,-1.64
2018-02-08T21:00:47.869Z,-1.73
2018-02-08T21:03:16.193Z,-1.71
2018-02-08T21:05:44.501Z,-1.85
2018-02-08T21:08:15.885Z,-1.85
2018-02-08T21:10:44.177Z,-1.88
2018-02-08T21:13:16.554Z,-1.82
2018-02-08T21:15:45.172Z,-1.86
2018-02-08T21:18:17.015Z,-1.86
2018-02-08T21:20:45.344Z,-2.00
2018-02-08T21:23:16.774Z,-2.13
2018-02-08T21:25:45.321Z,-2.12
2018-02-08T21:28:17.247Z,-2.10
2018-02-08T21:30:45.796Z,-2.05
2018-02-08T21:33:15.881Z,-2.24
2018-02-08T21:35:44.396Z,-2.36
2018-02-08T21:38:18.455Z,-2.28
2018-02-08T21:40:46.791Z,-2.16
2018-02-08T21:43:16.142Z,-2.12
2018-02-08T21:45:44.447Z,-2.04
2018-02-08T21:48:16.272Z,-2.07
2018-02-08T21:50:44.571Z,-2.13
2018-02-08T21:53:18.512Z,-2.18
2018-02-08T21:55:46.805Z,-2.11
2018-02-08T21:58:16.337Z,-2.11
2018-02-08T22:00:44.910Z,-2.11
2018-02-08T22:03:17.008Z,-2.10
2018-02-08T22:05:45.625Z,-2.17
2018-02-08T22:08:17.998Z,-2.24
2018-02-08T22:10:46.520Z,-2.23
2018-02-08T22:13:15.937Z,-2.28
2018-02-08T22:15:44.288Z,-2.31
2018-02-08T22:18:19.409Z,-2.23
2018-02-08T22:20:47.761Z,-2.29
2018-02-08T22:23:16.030Z,-2.38
2018-02-08T22:25:44.354Z,-2.34
2018-02-08T22:28:19.356Z,-2.31
2018-02-08T22:30:47.663Z,-2.39
2018-02-08T22:33:15.948Z,-2.40
2018-02-08T22:35:45.060Z,-2.46
2018-02-08T22:38:16.695Z,-2.53
2018-02-08T22:40:44.989Z,-2.48
2018-02-08T22:43:17.668Z,-2.54
2018-02-08T22:45:46.000Z,-2.45
2018-02-08T22:48:16.370Z,-2.45
2018-02-08T22:50:44.665Z,-2.49
2018-02-08T22:53:16.709Z,-2.52
2018-02-08T22:55:45.105Z,-2.54
2018-02-08T22:58:16.967Z,-2.52
2018-02-08T23:00:45.260Z,-2.69
2018-02-08T23:03:17.205Z,-2.74
2018-02-08T23:05:45.487Z,-2.73
2018-02-08T23:08:16.722Z,-2.59
2018-02-08T23:10:45.011Z,-2.52
2018-02-08T23:13:17.149Z,-2.59
2018-02-08T23:15:45.446Z,-2.60
2018-02-08T23:18:17.522Z,-2.66
2018-02-08T23:20:45.820Z,-2.67
2018-02-08T23:23:15.932Z,-2.73
2018-02-08T23:25:44.228Z,-2.72
2018-02-08T23:28:15.687Z,-2.78
2018-02-08T23:30:44.207Z,-2.76
2018-02-08T23:33:19.280Z,-2.79
2018-02-08T23:35:48.549Z,-2.78
2018-02-08T23:38:16.853Z,-2.79
2018-02-08T23:40:45.396Z,-2.82
2018-02-08T23:43:17.452Z,-2.81
2018-02-08T23:45:45.808Z,-2.81
2018-02-08T23:48:16.059Z,-2.84
2018-02-08T23:50:44.354Z,-2.84
2018-02-08T23:53:19.521Z,-2.77
2018-02-08T23:55:48.341Z,-2.79
2018-02-08T23:58:16.640Z,-2.82
